createdAt,value
2022-10-25T00:04:09.234Z,45.10
2022-10-25T00:07:17.137Z,44.00
2022-10-25T00:10:25.820Z,47.60
2022-10-25T00:13:33.705Z,43.30
2022-10-25T00:16:42.326Z,45.80
2022-10-25T00:19:51.079Z,44.80
2022-10-25T00:22:59.087Z,44.50
2022-10-25T00:26:09.901Z,43.00
2022-10-25T00:29:19.417Z,38.70
2022-10-25T00:32:27.091Z,43.50
2022-10-25T00:35:36.382Z,43.40
2022-10-25T00:38:45.856Z,45.40
2022-10-25T00:41:53.714Z,38.00
2022-10-25T00:45:11.184Z,42.60
2022-10-25T00:48:20.424Z,43.70
2022-10-25T00:51:34.881Z,42.50
2022-10-25T00:54:50.504Z,41.60
2022-10-25T00:58:03.603Z,40.60
2022-10-25T01:01:14.749Z,43.10
2022-10-25T01:04:30.231Z,34.60
2022-10-25T01:07:38.269Z,38.90
2022-10-25T01:10:46.461Z,35.80
2022-10-25T01:13:56.032Z,37.20
2022-10-25T01:17:15.279Z,34.20
2022-10-25T01:21:12.040Z,35.10
2022-10-25T01:25:12.692Z,28.90
2022-10-25T01:28:34.923Z,25.10
2022-10-25T01:31:47.928Z,24.80
2022-10-25T01:35:07.987Z,29.00
2022-10-25T01:38:31.171Z,30.80
2022-10-25T01:41:50.936Z,34.50
2022-10-25T01:45:13.094Z,30.50
2022-10-25T01:48:28.787Z,28.80
2022-10-25T01:51:40.065Z,26.80
2022-10-25T01:54:47.675Z,24.00
2022-10-25T01:58:14.239Z,22.80
2022-10-25T02:01:38.770Z,25.70
2022-10-25T02:05:01.914Z,26.70
2022-10-25T02:08:22.585Z,23.40
2022-10-25T02:11:33.041Z,24.60
2022-10-25T02:14:48.512Z,26.50
2022-10-25T02:18:01.255Z,25.10
2022-10-25T02:21:12.172Z,23.00
2022-10-25T02:24:26.555Z,23.10
2022-10-25T02:27:36.362Z,23.80
2022-10-25T02:33:53.258Z,24.60
2022-10-25T02:37:01.885Z,24.00
2022-10-25T02:40:12.504Z,25.60
2022-10-25T02:43:20.153Z,23.90
2022-10-25T02:46:28.667Z,23.50
2022-10-25T02:49:36.403Z,26.20
2022-10-25T02:52:44.461Z,38.60
2022-10-25T02:56:00.139Z,41.80
2022-10-25T02:59:08.066Z,43.60
2022-10-25T03:02:16.108Z,31.20
2022-10-25T03:05:23.984Z,27.40
2022-10-25T03:08:32.320Z,27.10
2022-10-25T03:11:40.211Z,29.80
2022-10-25T03:14:48.042Z,25.90
2022-10-25T03:17:55.764Z,27.00
2022-10-25T03:21:05.727Z,29.20
2022-10-25T03:24:13.792Z,26.40
2022-10-25T03:27:21.492Z,25.00
2022-10-25T03:30:29.966Z,25.50
2022-10-25T03:33:37.584Z,23.80
2022-10-25T03:36:45.600Z,23.10
2022-10-25T03:39:54.321Z,23.00
2022-10-25T03:43:02.189Z,23.90
2022-10-25T03:46:10.434Z,24.30
2022-10-25T03:49:18.777Z,23.60
2022-10-25T03:52:26.461Z,23.70
2022-10-25T03:55:35.105Z,23.30
2022-10-25T03:58:42.812Z,22.50
2022-10-25T04:01:50.929Z,22.70
2022-10-25T04:04:58.800Z,23.70
2022-10-25T04:08:07.250Z,27.00
2022-10-25T04:11:15.035Z,25.00
2022-10-25T04:14:23.256Z,22.40
2022-10-25T04:17:30.941Z,24.30
2022-10-25T04:20:38.962Z,23.30
2022-10-25T04:23:46.973Z,23.30
2022-10-25T04:26:55.010Z,23.30
2022-10-25T04:30:02.814Z,25.00
2022-10-25T04:33:10.964Z,26.90
2022-10-25T04:36:18.832Z,24.40
2022-10-25T04:39:27.236Z,24.10
2022-10-25T04:42:36.929Z,23.40
2022-10-25T04:45:45.045Z,28.50
2022-10-25T04:48:52.744Z,23.90
2022-10-25T04:52:00.995Z,26.00
2022-10-25T04:55:09.775Z,24.60
2022-10-25T04:58:17.823Z,23.50
2022-10-25T05:01:25.596Z,24.90
2022-10-25T05:04:33.682Z,27.40
2022-10-25T05:07:41.661Z,25.90
2022-10-25T05:10:56.593Z,27.40
2022-10-25T05:14:04.198Z,29.90
2022-10-25T05:17:12.097Z,31.60
2022-10-25T05:20:19.837Z,34.20
2022-10-25T05:23:29.221Z,33.20
2022-10-25T05:26:37.244Z,31.30
2022-10-25T05:29:45.272Z,27.10
2022-10-25T05:32:52.944Z,25.80
2022-10-25T05:36:02.098Z,26.40
2022-10-25T05:39:09.999Z,24.70
2022-10-25T05:42:18.098Z,22.70
2022-10-25T05:45:25.759Z,20.70
2022-10-25T05:48:35.404Z,19.50
2022-10-25T05:51:43.440Z,19.90
2022-10-25T05:54:51.324Z,17.50
2022-10-25T05:57:59.362Z,18.20
2022-10-25T06:01:08.052Z,18.00
2022-10-25T06:04:17.490Z,17.20
2022-10-25T06:07:25.597Z,19.40
2022-10-25T06:10:33.228Z,18.20
2022-10-25T06:13:41.825Z,17.80
2022-10-25T06:16:49.505Z,16.20
2022-10-25T06:19:57.498Z,16.90
2022-10-25T06:23:08.000Z,18.10
2022-10-25T06:26:21.290Z,15.80
2022-10-25T06:29:28.889Z,17.60
2022-10-25T06:32:38.426Z,16.00
2022-10-25T06:35:46.100Z,18.20
2022-10-25T06:38:54.825Z,16.60
2022-10-25T06:42:02.661Z,18.20
2022-10-25T06:45:12.114Z,20.20
2022-10-25T06:48:20.072Z,18.80
2022-10-25T06:51:30.358Z,18.20
2022-10-25T06:54:38.042Z,18.90
2022-10-25T06:57:46.031Z,19.50
2022-10-25T07:00:53.708Z,18.10
2022-10-25T07:04:03.544Z,22.10
2022-10-25T07:10:18.784Z,20.10
2022-10-25T07:13:26.734Z,23.50
2022-10-25T07:16:34.799Z,23.50
2022-10-25T07:19:42.468Z,23.00
2022-10-25T07:22:50.617Z,24.30
2022-10-25T07:25:59.131Z,24.40
2022-10-25T07:29:08.571Z,24.90
2022-10-25T07:32:16.250Z,26.20
2022-10-25T07:35:24.628Z,25.50
2022-10-25T07:38:32.281Z,26.70
2022-10-25T07:41:40.311Z,28.90
2022-10-25T07:44:48.003Z,29.20
2022-10-25T07:47:57.120Z,29.50
2022-10-25T07:51:11.405Z,29.20
2022-10-25T07:54:19.409Z,27.10
2022-10-25T07:57:26.993Z,29.00
2022-10-25T08:00:35.851Z,26.60
2022-10-25T08:03:43.764Z,29.40
2022-10-25T08:06:51.791Z,28.50
2022-10-25T08:09:59.890Z,29.50
2022-10-25T08:13:07.825Z,26.20
2022-10-25T08:16:15.476Z,26.80
2022-10-25T08:19:23.834Z,25.80
2022-10-25T08:22:31.565Z,27.20
2022-10-25T08:25:39.974Z,25.20
2022-10-25T08:28:47.912Z,25.50
2022-10-25T08:31:56.228Z,23.40
2022-10-25T08:35:03.900Z,25.80
2022-10-25T08:38:12.117Z,24.30
2022-10-25T08:41:27.053Z,26.40
2022-10-25T08:44:54.083Z,22.80
2022-10-25T08:48:05.970Z,24.50
2022-10-25T08:51:26.643Z,23.40
2022-10-25T08:54:41.689Z,23.80
2022-10-25T08:57:52.898Z,19.00
2022-10-25T09:01:07.248Z,20.80
2022-10-25T09:04:16.074Z,21.80
2022-10-25T09:08:01.384Z,21.90
2022-10-25T09:11:22.365Z,18.80
2022-10-25T09:14:46.678Z,19.60
2022-10-25T09:17:56.824Z,18.80
2022-10-25T09:21:14.794Z,22.90
2022-10-25T09:24:35.278Z,24.50
2022-10-25T09:27:52.185Z,19.30
2022-10-25T09:31:03.017Z,21.00
2022-10-25T09:34:14.049Z,22.10
2022-10-25T09:37:29.616Z,22.20
2022-10-25T09:40:51.066Z,19.70
2022-10-25T09:44:06.172Z,18.40
2022-10-25T09:47:29.958Z,15.80
2022-10-25T09:50:46.011Z,17.60
2022-10-25T09:53:54.927Z,17.00
2022-10-25T09:57:03.168Z,17.80
2022-10-25T10:00:18.525Z,15.60
2022-10-25T10:03:32.114Z,15.20
2022-10-25T10:06:42.100Z,16.00
2022-10-25T10:09:52.997Z,22.70
2022-10-25T10:13:11.864Z,25.70
2022-10-25T10:16:27.997Z,15.30
2022-10-25T10:19:35.984Z,14.90
2022-10-25T10:22:51.937Z,11.10
2022-10-25T10:26:04.111Z,14.10
2022-10-25T10:29:19.800Z,14.20
2022-10-25T10:32:33.681Z,14.40
2022-10-25T10:35:43.662Z,14.80
2022-10-25T10:38:51.473Z,16.80
2022-10-25T10:42:20.298Z,16.20
2022-10-25T10:45:28.028Z,17.50
2022-10-25T10:48:43.291Z,15.40
2022-10-25T10:51:51.108Z,15.90
2022-10-25T10:55:01.386Z,7.80
2022-10-25T10:58:16.708Z,7.80
2022-10-25T11:01:35.207Z,6.40
2022-10-25T11:04:52.876Z,6.20
2022-10-25T11:08:04.280Z,5.80
2022-10-25T11:11:21.585Z,6.10
2022-10-25T11:14:29.453Z,5.40
2022-10-25T11:17:45.255Z,7.00
2022-10-25T11:20:59.686Z,5.80
2022-10-25T11:24:21.859Z,7.10
2022-10-25T11:27:51.175Z,6.30
2022-10-25T11:31:15.452Z,7.60
2022-10-25T11:34:39.215Z,6.70
2022-10-25T11:37:54.208Z,6.10
2022-10-25T11:41:14.410Z,6.50
2022-10-25T11:45:02.547Z,7.00
2022-10-25T11:48:39.429Z,7.80
2022-10-25T11:51:59.844Z,6.40
2022-10-25T11:55:22.365Z,8.90
2022-10-25T11:58:46.613Z,6.50
2022-10-25T12:02:18.139Z,6.90
2022-10-25T12:05:42.544Z,8.80
2022-10-25T12:09:08.189Z,7.20
2022-10-25T12:12:21.195Z,8.10
2022-10-25T12:15:37.654Z,10.10
2022-10-25T12:18:48.703Z,11.40
2022-10-25T12:22:02.125Z,8.00
2022-10-25T12:25:21.564Z,9.60
2022-10-25T12:28:43.373Z,13.50
2022-10-25T12:31:56.935Z,9.30
2022-10-25T12:35:15.870Z,6.50
2022-10-25T12:38:34.539Z,7.50
2022-10-25T12:41:49.127Z,6.80
2022-10-25T12:45:21.230Z,5.30
2022-10-25T12:49:23.470Z,5.80
2022-10-25T12:52:39.127Z,6.90
2022-10-25T12:56:07.643Z,5.30
2022-10-25T12:59:38.257Z,6.60
2022-10-25T13:03:37.255Z,7.00
2022-10-25T13:06:50.035Z,5.10
2022-10-25T13:10:07.064Z,6.40
2022-10-25T13:13:25.562Z,6.30
2022-10-25T13:16:37.244Z,5.70
2022-10-25T13:20:00.807Z,5.40
2022-10-25T13:24:04.025Z,6.10
2022-10-25T13:27:26.982Z,4.70
2022-10-25T13:30:35.599Z,5.00
2022-10-25T13:33:43.698Z,4.40
2022-10-25T13:36:53.872Z,4.10
2022-10-25T13:40:05.198Z,4.80
2022-10-25T13:43:23.934Z,5.80
2022-10-25T13:46:38.721Z,6.70
2022-10-25T13:49:51.248Z,7.90
2022-10-25T13:53:09.464Z,5.40
2022-10-25T13:56:34.407Z,4.40
2022-10-25T14:00:10.922Z,4.60
2022-10-25T14:03:48.928Z,5.10
2022-10-25T14:06:58.504Z,5.30
2022-10-25T14:10:08.708Z,11.10
2022-10-25T14:13:33.772Z,4.00
2022-10-25T14:16:56.630Z,5.90
2022-10-25T14:20:10.985Z,5.70
2022-10-25T14:23:25.240Z,4.80
2022-10-25T14:26:33.405Z,6.00
2022-10-25T14:29:41.216Z,6.80
2022-10-25T14:32:56.816Z,5.50
2022-10-25T14:36:22.898Z,4.40
2022-10-25T14:39:35.717Z,7.90
2022-10-25T14:42:43.606Z,4.70
2022-10-25T14:46:02.627Z,4.90
2022-10-25T14:49:14.554Z,8.50
2022-10-25T14:52:22.859Z,6.00
2022-10-25T14:55:35.251Z,5.40
2022-10-25T14:58:47.088Z,4.40
2022-10-25T15:02:02.409Z,5.80
2022-10-25T15:05:21.115Z,4.50
2022-10-25T15:08:40.192Z,5.70
2022-10-25T15:12:07.775Z,6.90
2022-10-25T15:15:44.265Z,5.60
2022-10-25T15:19:18.428Z,15.00
2022-10-25T15:22:35.235Z,15.20
2022-10-25T15:25:43.463Z,14.30
2022-10-25T15:28:57.431Z,12.90
2022-10-25T15:32:05.437Z,9.90
2022-10-25T15:35:30.159Z,11.30
2022-10-25T15:39:06.343Z,12.50
2022-10-25T15:45:18.655Z,6.60
2022-10-25T15:48:28.407Z,5.80
2022-10-25T15:54:45.231Z,11.00
2022-10-25T15:57:53.493Z,9.10
2022-10-25T16:01:01.505Z,8.50
2022-10-25T16:04:11.113Z,5.90
2022-10-25T16:07:19.250Z,6.90
2022-10-25T16:10:28.955Z,6.10
2022-10-25T16:13:39.699Z,6.40
2022-10-25T16:16:48.357Z,7.60
2022-10-25T16:19:56.444Z,6.60
2022-10-25T16:23:04.380Z,5.90
2022-10-25T16:26:26.170Z,6.60
2022-10-25T16:29:34.161Z,7.40
2022-10-25T16:32:41.993Z,7.40
2022-10-25T16:35:49.905Z,8.20
2022-10-25T16:38:58.377Z,9.10
2022-10-25T16:42:06.385Z,12.90
2022-10-25T16:45:24.130Z,8.60
2022-10-25T16:48:34.381Z,11.40
2022-10-25T16:51:44.408Z,6.20
2022-10-25T16:54:52.334Z,6.80
2022-10-25T16:58:01.380Z,5.90
2022-10-25T17:01:20.600Z,6.10
2022-10-25T17:04:28.617Z,8.80
2022-10-25T17:07:36.593Z,5.60
2022-10-25T17:10:46.077Z,6.60
2022-10-25T17:13:53.970Z,6.40
2022-10-25T17:17:03.264Z,7.00
2022-10-25T17:20:14.140Z,5.60
2022-10-25T17:23:22.205Z,7.10
2022-10-25T17:26:31.774Z,7.40
2022-10-25T17:29:39.509Z,5.20
2022-10-25T17:32:47.602Z,4.90
2022-10-25T17:35:57.047Z,8.10
2022-10-25T17:39:05.458Z,9.00
2022-10-25T17:42:13.566Z,7.10
2022-10-25T17:45:22.190Z,7.20
2022-10-25T17:48:30.079Z,8.00
2022-10-25T17:51:40.547Z,10.80
2022-10-25T17:54:48.705Z,11.20
2022-10-25T17:57:56.670Z,11.60
2022-10-25T18:01:09.278Z,11.90
2022-10-25T18:04:17.144Z,7.90
2022-10-25T18:07:28.876Z,11.80
2022-10-25T18:10:39.684Z,7.00
2022-10-25T18:13:47.757Z,9.10
2022-10-25T18:16:55.756Z,11.30
2022-10-25T18:20:03.567Z,10.70
2022-10-25T18:23:13.646Z,10.10
2022-10-25T18:26:22.005Z,8.40
2022-10-25T18:29:30.009Z,9.10
2022-10-25T18:32:38.032Z,10.30
2022-10-25T18:35:46.426Z,9.30
2022-10-25T18:38:54.636Z,10.00
2022-10-25T18:42:04.598Z,8.90
2022-10-25T18:45:13.221Z,9.10
2022-10-25T18:48:21.100Z,9.20
2022-10-25T18:51:30.368Z,10.20
2022-10-25T18:54:38.553Z,9.90
2022-10-25T18:57:46.861Z,8.70
2022-10-25T19:00:55.094Z,7.90
2022-10-25T19:04:04.311Z,11.50
2022-10-25T19:07:12.805Z,17.00
2022-10-25T19:10:20.650Z,18.60
2022-10-25T19:13:31.176Z,17.90
2022-10-25T19:16:40.916Z,19.70
2022-10-25T19:19:48.776Z,16.00
2022-10-25T19:22:58.913Z,16.20
2022-10-25T19:26:09.726Z,16.10
2022-10-25T19:29:17.730Z,14.80
2022-10-25T19:32:25.503Z,15.00
2022-10-25T19:35:33.551Z,10.00
2022-10-25T19:38:42.434Z,10.00
2022-10-25T19:41:50.897Z,10.10
2022-10-25T19:48:08.579Z,8.60
2022-10-25T19:51:19.613Z,9.70
2022-10-25T19:54:27.525Z,9.40
2022-10-25T19:57:35.784Z,8.80
2022-10-25T20:00:43.823Z,7.40
2022-10-25T20:03:56.760Z,8.40
2022-10-25T20:07:04.995Z,7.70
2022-10-25T20:10:14.530Z,8.90
2022-10-25T20:13:22.817Z,9.80
2022-10-25T20:16:31.993Z,8.20
2022-10-25T20:19:39.985Z,7.60
2022-10-25T20:22:47.852Z,7.70
2022-10-25T20:25:56.382Z,8.30
2022-10-25T20:29:06.840Z,8.90
2022-10-25T20:32:15.801Z,8.70
2022-10-25T20:35:26.297Z,9.00
2022-10-25T20:38:35.582Z,7.40
2022-10-25T20:41:44.010Z,8.80
2022-10-25T20:44:51.933Z,8.00
2022-10-25T20:48:00.842Z,7.40
2022-10-25T20:51:11.466Z,7.90
2022-10-25T20:54:21.877Z,8.60
2022-10-25T20:57:29.665Z,9.50
2022-10-25T21:00:38.130Z,9.40
2022-10-25T21:03:46.092Z,7.50
2022-10-25T21:06:54.534Z,6.10
2022-10-25T21:10:03.156Z,7.70
2022-10-25T21:13:12.267Z,7.20
2022-10-25T21:16:20.601Z,8.60
2022-10-25T21:19:28.488Z,7.80
2022-10-25T21:22:36.537Z,7.40
2022-10-25T21:25:57.990Z,6.60
2022-10-25T21:29:09.044Z,8.10
2022-10-25T21:32:16.793Z,6.50
2022-10-25T21:35:25.371Z,8.00
2022-10-25T21:38:33.228Z,6.30
2022-10-25T21:41:41.158Z,7.00
2022-10-25T21:44:48.996Z,7.80
2022-10-25T21:47:57.096Z,7.80
2022-10-25T21:51:05.557Z,8.20
2022-10-25T21:54:13.576Z,7.80
2022-10-25T21:57:21.285Z,8.10
2022-10-25T22:00:29.159Z,8.10
2022-10-25T22:03:37.182Z,9.00
2022-10-25T22:06:44.926Z,8.30
2022-10-25T22:09:52.673Z,7.60
2022-10-25T22:13:00.443Z,8.40
2022-10-25T22:16:12.151Z,8.50
2022-10-25T22:22:36.877Z,7.30
2022-10-25T22:25:44.749Z,9.60
2022-10-25T22:28:56.856Z,7.20
2022-10-25T22:35:17.335Z,8.50
2022-10-25T22:38:25.385Z,7.80
2022-10-25T22:41:34.244Z,8.10
2022-10-25T22:44:42.250Z,7.90
2022-10-25T22:47:52.001Z,9.50
2022-10-25T22:51:00.416Z,7.90
2022-10-25T22:54:08.983Z,7.60
2022-10-25T22:57:17.118Z,8.00
2022-10-25T23:00:25.143Z,8.80
2022-10-25T23:03:36.485Z,8.00
2022-10-25T23:06:44.939Z,7.20
2022-10-25T23:09:53.009Z,8.50
2022-10-25T23:13:02.092Z,8.10
2022-10-25T23:16:11.515Z,7.50
2022-10-25T23:19:19.859Z,8.00
2022-10-25T23:22:27.604Z,7.20
2022-10-25T23:25:37.298Z,7.20
2022-10-25T23:28:45.376Z,8.00
2022-10-25T23:31:53.703Z,7.90
2022-10-25T23:35:01.915Z,7.70
2022-10-25T23:38:11.652Z,6.50
2022-10-25T23:41:20.729Z,6.00
2022-10-25T23:44:29.127Z,6.70
2022-10-25T23:47:36.875Z,8.10
2022-10-25T23:50:44.765Z,7.20
2022-10-25T23:53:52.450Z,7.40
2022-10-25T23:57:00.246Z,6.70
